sensor_id;sensor_type;location;lat;lon;timestamp;temperature;humidity
52245;DHT22;55759;51.586;-1.758;2023-10-08T00:00:32;14.80;92.60
52245;DHT22;55759;51.586;-1.758;2023-10-08T00:03:09;14.80;92.60
52245;DHT22;55759;51.586;-1.758;2023-10-08T00:05:39;14.80;92.70
52245;DHT22;55759;51.586;-1.758;2023-10-08T00:08:28;14.80;92.80
52245;DHT22;55759;51.586;-1.758;2023-10-08T01:08:17;14.70;92.80
52245;DHT22;55759;51.586;-1.758;2023-10-08T01:10:48;14.70;92.70
52245;DHT22;55759;51.586;-1.758;2023-10-08T04:25:18;12.40;92.70
52245;DHT22;55759;51.586;-1.758;2023-10-08T07:08:45;11.90;94.00
52245;DHT22;55759;51.586;-1.758;2023-10-08T07:14:05;12.10;94.10
52245;DHT22;55759;51.586;-1.758;2023-10-08T07:16:31;12.30;94.20
52245;DHT22;55759;51.586;-1.758;2023-10-08T07:18:57;12.40;94.20
52245;DHT22;55759;51.586;-1.758;2023-10-08T07:21:46;12.50;94.20
52245;DHT22;55759;51.586;-1.758;2023-10-08T07:24:37;12.60;94.10
52245;DHT22;55759;51.586;-1.758;2023-10-08T07:27:22;12.70;94.10
52245;DHT22;55759;51.586;-1.758;2023-10-08T07:29:55;12.80;94.00
52245;DHT22;55759;51.586;-1.758;2023-10-08T07:32:30;12.80;93.90
52245;DHT22;55759;51.586;-1.758;2023-10-08T07:34:58;12.90;93.90
52245;DHT22;55759;51.586;-1.758;2023-10-08T07:37:43;12.90;93.90
52245;DHT22;55759;51.586;-1.758;2023-10-08T07:40:31;12.90;93.80
52245;DHT22;55759;51.586;-1.758;2023-10-08T07:43:08;13.00;93.80
52245;DHT22;55759;51.586;-1.758;2023-10-08T07:45:52;13.10;93.80
52245;DHT22;55759;51.586;-1.758;2023-10-08T07:48:44;13.10;93.70
52245;DHT22;55759;51.586;-1.758;2023-10-08T07:51:16;13.20;93.70
52245;DHT22;55759;51.586;-1.758;2023-10-08T07:53:56;13.30;93.70
52245;DHT22;55759;51.586;-1.758;2023-10-08T07:56:35;13.40;93.70
52245;DHT22;55759;51.586;-1.758;2023-10-08T07:59:06;13.50;93.70
52245;DHT22;55759;51.586;-1.758;2023-10-08T08:01:34;13.60;93.60
52245;DHT22;55759;51.586;-1.758;2023-10-08T08:04:03;13.70;93.50
52245;DHT22;55759;51.586;-1.758;2023-10-08T08:06:49;13.80;93.30
52245;DHT22;55759;51.586;-1.758;2023-10-08T08:09:43;13.90;93.20
52245;DHT22;55759;51.586;-1.758;2023-10-08T09:01:12;15.70;89.20
52245;DHT22;55759;51.586;-1.758;2023-10-08T09:03:39;15.90;89.60
52245;DHT22;55759;51.586;-1.758;2023-10-08T09:06:14;16.10;88.30
52245;DHT22;55759;51.586;-1.758;2023-10-08T09:11:38;16.50;87.90
52245;DHT22;55759;51.586;-1.758;2023-10-08T09:14:07;16.70;87.90
52245;DHT22;55759;51.586;-1.758;2023-10-08T09:16:36;16.90;86.90
52245;DHT22;55759;51.586;-1.758;2023-10-08T09:22:43;17.50;86.40
52245;DHT22;55759;51.586;-1.758;2023-10-08T09:25:09;17.80;85.70
52245;DHT22;55759;51.586;-1.758;2023-10-08T09:27:35;18.00;85.30
52245;DHT22;55759;51.586;-1.758;2023-10-08T09:30:06;18.20;85.90
52245;DHT22;55759;51.586;-1.758;2023-10-08T09:32:41;18.50;85.30
52245;DHT22;55759;51.586;-1.758;2023-10-08T09:35:09;18.60;84.60
52245;DHT22;55759;51.586;-1.758;2023-10-08T09:37:36;18.80;82.70
52245;DHT22;55759;51.586;-1.758;2023-10-08T09:40:04;18.90;82.80
52245;DHT22;55759;51.586;-1.758;2023-10-08T09:42:35;18.90;81.80
52245;DHT22;55759;51.586;-1.758;2023-10-08T09:45:03;19.10;80.70
52245;DHT22;55759;51.586;-1.758;2023-10-08T09:47:37;19.20;78.50
52245;DHT22;55759;51.586;-1.758;2023-10-08T09:50:07;19.30;76.60
52245;DHT22;55759;51.586;-1.758;2023-10-08T09:53:10;19.50;76.80
52245;DHT22;55759;51.586;-1.758;2023-10-08T09:58:20;20.10;76.70
52245;DHT22;55759;51.586;-1.758;2023-10-08T10:00:48;20.30;76.90
52245;DHT22;55759;51.586;-1.758;2023-10-08T10:03:15;20.60;76.10
52245;DHT22;55759;51.586;-1.758;2023-10-08T10:05:47;20.70;74.60
52245;DHT22;55759;51.586;-1.758;2023-10-08T10:08:14;20.90;73.10
52245;DHT22;55759;51.586;-1.758;2023-10-08T10:10:43;21.00;69.60
52245;DHT22;55759;51.586;-1.758;2023-10-08T10:13:16;21.00;70.40
52245;DHT22;55759;51.586;-1.758;2023-10-08T10:15:44;21.10;69.40
52245;DHT22;55759;51.586;-1.758;2023-10-08T10:18:33;21.00;66.70
52245;DHT22;55759;51.586;-1.758;2023-10-08T10:21:24;20.90;67.00
52245;DHT22;55759;51.586;-1.758;2023-10-08T10:23:48;20.90;68.30
52245;DHT22;55759;51.586;-1.758;2023-10-08T10:26:30;20.90;68.30
52245;DHT22;55759;51.586;-1.758;2023-10-08T10:31:51;20.90;65.30
52245;DHT22;55759;51.586;-1.758;2023-10-08T10:34:23;20.90;66.70
52245;DHT22;55759;51.586;-1.758;2023-10-08T10:36:54;20.90;64.70
52245;DHT22;55759;51.586;-1.758;2023-10-08T10:39:37;21.00;61.40
52245;DHT22;55759;51.586;-1.758;2023-10-08T10:42:14;21.00;63.20
52245;DHT22;55759;51.586;-1.758;2023-10-08T10:44:54;21.10;65.30
52245;DHT22;55759;51.586;-1.758;2023-10-08T10:47:22;21.20;63.50
52245;DHT22;55759;51.586;-1.758;2023-10-08T10:49:48;21.30;64.80
52245;DHT22;55759;51.586;-1.758;2023-10-08T10:52:24;21.30;63.50
52245;DHT22;55759;51.586;-1.758;2023-10-08T10:55:08;21.40;64.90
52245;DHT22;55759;51.586;-1.758;2023-10-08T10:57:50;21.40;64.20
52245;DHT22;55759;51.586;-1.758;2023-10-08T11:00:30;21.50;63.40
52245;DHT22;55759;51.586;-1.758;2023-10-08T11:03:00;21.60;61.00
52245;DHT22;55759;51.586;-1.758;2023-10-08T11:05:29;21.70;62.70
52245;DHT22;55759;51.586;-1.758;2023-10-08T11:07:57;21.90;64.30
52245;DHT22;55759;51.586;-1.758;2023-10-08T11:10:34;22.10;63.20
52245;DHT22;55759;51.586;-1.758;2023-10-08T11:13:05;22.20;62.50
52245;DHT22;55759;51.586;-1.758;2023-10-08T11:15:43;22.40;64.70
52245;DHT22;55759;51.586;-1.758;2023-10-08T11:18:17;22.50;62.00
52245;DHT22;55759;51.586;-1.758;2023-10-08T11:21:08;22.50;59.90
52245;DHT22;55759;51.586;-1.758;2023-10-08T11:23:48;22.50;61.40
52245;DHT22;55759;51.586;-1.758;2023-10-08T11:26:25;22.60;60.60
52245;DHT22;55759;51.586;-1.758;2023-10-08T11:29:01;22.60;60.40
52245;DHT22;55759;51.586;-1.758;2023-10-08T11:31:29;22.70;60.90
52245;DHT22;55759;51.586;-1.758;2023-10-08T11:34:03;22.70;62.20
52245;DHT22;55759;51.586;-1.758;2023-10-08T11:36:54;22.80;61.60
52245;DHT22;55759;51.586;-1.758;2023-10-08T11:39:27;23.00;61.30
52245;DHT22;55759;51.586;-1.758;2023-10-08T11:45:20;23.30;57.10
52245;DHT22;55759;51.586;-1.758;2023-10-08T11:47:50;23.50;57.00
52245;DHT22;55759;51.586;-1.758;2023-10-08T11:50:39;23.60;58.20
52245;DHT22;55759;51.586;-1.758;2023-10-08T11:53:11;23.70;56.50
52245;DHT22;55759;51.586;-1.758;2023-10-08T11:55:37;23.60;54.70
52245;DHT22;55759;51.586;-1.758;2023-10-08T11:58:05;23.70;57.00
52245;DHT22;55759;51.586;-1.758;2023-10-08T12:00:48;23.60;57.80
52245;DHT22;55759;51.586;-1.758;2023-10-08T12:03:18;23.70;55.70
52245;DHT22;55759;51.586;-1.758;2023-10-08T12:15:08;24.20;57.80
52245;DHT22;55759;51.586;-1.758;2023-10-08T12:18:08;24.40;54.70
52245;DHT22;55759;51.586;-1.758;2023-10-08T12:20:44;24.50;54.50
52245;DHT22;55759;51.586;-1.758;2023-10-08T13:05:38;36.40;35.60
52245;DHT22;55759;51.586;-1.758;2023-10-08T13:08:12;37.00;36.20
52245;DHT22;55759;51.586;-1.758;2023-10-08T13:10:40;37.50;33.00
52245;DHT22;55759;51.586;-1.758;2023-10-08T13:17:30;39.40;33.30
52245;DHT22;55759;51.586;-1.758;2023-10-08T13:23:56;40.60;29.90
52245;DHT22;55759;51.586;-1.758;2023-10-08T13:43:57;41.80;31.90
52245;DHT22;55759;51.586;-1.758;2023-10-08T13:47:14;41.90;33.10
52245;DHT22;55759;51.586;-1.758;2023-10-08T15:07:35;24.60;56.80
52245;DHT22;55759;51.586;-1.758;2023-10-08T15:10:31;24.40;61.70
52245;DHT22;55759;51.586;-1.758;2023-10-08T15:13:12;24.30;57.00
52245;DHT22;55759;51.586;-1.758;2023-10-08T15:15:51;24.20;58.10
52245;DHT22;55759;51.586;-1.758;2023-10-08T15:18:53;24.10;60.00
52245;DHT22;55759;51.586;-1.758;2023-10-08T15:25:24;24.00;60.60
52245;DHT22;55759;51.586;-1.758;2023-10-08T15:51:21;23.70;56.50
52245;DHT22;55759;51.586;-1.758;2023-10-08T15:54:04;23.60;57.20
52245;DHT22;55759;51.586;-1.758;2023-10-08T15:56:38;23.70;56.40
52245;DHT22;55759;51.586;-1.758;2023-10-08T15:59:04;23.70;56.00
52245;DHT22;55759;51.586;-1.758;2023-10-08T16:01:30;23.80;57.30
52245;DHT22;55759;51.586;-1.758;2023-10-08T16:03:55;23.80;55.30
52245;DHT22;55759;51.586;-1.758;2023-10-08T16:06:26;23.90;54.70
52245;DHT22;55759;51.586;-1.758;2023-10-08T16:08:52;23.90;52.70
52245;DHT22;55759;51.586;-1.758;2023-10-08T16:17:28;23.90;51.30
52245;DHT22;55759;51.586;-1.758;2023-10-08T16:20:22;23.80;53.60
52245;DHT22;55759;51.586;-1.758;2023-10-08T16:23:34;23.60;51.80
52245;DHT22;55759;51.586;-1.758;2023-10-08T16:26:21;23.50;52.40
52245;DHT22;55759;51.586;-1.758;2023-10-08T16:29:28;23.40;55.10
52245;DHT22;55759;51.586;-1.758;2023-10-08T16:35:43;23.10;57.40
52245;DHT22;55759;51.586;-1.758;2023-10-08T16:38:21;22.90;55.60
52245;DHT22;55759;51.586;-1.758;2023-10-08T16:40:52;22.70;57.10
52245;DHT22;55759;51.586;-1.758;2023-10-08T16:43:20;22.60;61.40
52245;DHT22;55759;51.586;-1.758;2023-10-08T16:45:54;22.60;61.40
52245;DHT22;55759;51.586;-1.758;2023-10-08T16:48:22;22.40;57.90
52245;DHT22;55759;51.586;-1.758;2023-10-08T16:51:01;22.30;62.90
52245;DHT22;55759;51.586;-1.758;2023-10-08T16:53:46;22.10;64.60
52245;DHT22;55759;51.586;-1.758;2023-10-08T16:56:19;21.90;64.60
52245;DHT22;55759;51.586;-1.758;2023-10-08T16:58:59;21.70;64.20
52245;DHT22;55759;51.586;-1.758;2023-10-08T17:01:39;21.50;64.10
52245;DHT22;55759;51.586;-1.758;2023-10-08T17:04:14;21.30;68.70
52245;DHT22;55759;51.586;-1.758;2023-10-08T17:06:41;21.10;67.90
52245;DHT22;55759;51.586;-1.758;2023-10-08T17:09:33;21.00;70.20
52245;DHT22;55759;51.586;-1.758;2023-10-08T17:12:10;20.80;66.30
52245;DHT22;55759;51.586;-1.758;2023-10-08T17:14:46;20.70;66.60
52245;DHT22;55759;51.586;-1.758;2023-10-08T17:17:42;20.60;69.20
52245;DHT22;55759;51.586;-1.758;2023-10-08T17:20:23;20.50;69.90
52245;DHT22;55759;51.586;-1.758;2023-10-08T17:28:50;20.00;74.40
52245;DHT22;55759;51.586;-1.758;2023-10-08T17:31:21;19.80;74.20
52245;DHT22;55759;51.586;-1.758;2023-10-08T17:33:51;19.70;76.20
52245;DHT22;55759;51.586;-1.758;2023-10-08T17:49:25;18.70;81.00
52245;DHT22;55759;51.586;-1.758;2023-10-08T17:52:35;18.60;81.50
52245;DHT22;55759;51.586;-1.758;2023-10-08T18:08:52;17.50;85.30
52245;DHT22;55759;51.586;-1.758;2023-10-08T18:11:59;17.30;85.70
52245;DHT22;55759;51.586;-1.758;2023-10-08T18:14:48;17.10;86.00
52245;DHT22;55759;51.586;-1.758;2023-10-08T18:17:28;17.00;86.40
52245;DHT22;55759;51.586;-1.758;2023-10-08T18:20:14;16.90;86.70
52245;DHT22;55759;51.586;-1.758;2023-10-08T18:46:53;16.00;88.60
52245;DHT22;55759;51.586;-1.758;2023-10-08T18:49:49;15.90;88.50
52245;DHT22;55759;51.586;-1.758;2023-10-08T18:53:20;15.90;88.70
52245;DHT22;55759;51.586;-1.758;2023-10-08T19:02:40;15.60;89.20
52245;DHT22;55759;51.586;-1.758;2023-10-08T21:50:40;16.10;84.90
52245;DHT22;55759;51.586;-1.758;2023-10-08T21:57:21;16.10;84.60
52245;DHT22;55759;51.586;-1.758;2023-10-08T22:00:45;16.10;84.70
52245;DHT22;55759;51.586;-1.758;2023-10-08T22:06:37;16.00;84.60
52245;DHT22;55759;51.586;-1.758;2023-10-08T22:12:51;16.00;84.30
52245;DHT22;55759;51.586;-1.758;2023-10-08T22:16:04;16.10;84.20
52245;DHT22;55759;51.586;-1.758;2023-10-08T22:22:11;16.00;84.40
52245;DHT22;55759;51.586;-1.758;2023-10-08T22:24:58;16.00;84.90
52245;DHT22;55759;51.586;-1.758;2023-10-08T22:28:05;15.90;85.00
52245;DHT22;55759;51.586;-1.758;2023-10-08T22:31:17;15.80;85.60
52245;DHT22;55759;51.586;-1.758;2023-10-08T22:36:50;15.80;86.10
52245;DHT22;55759;51.586;-1.758;2023-10-08T22:40:00;15.70;86.10
52245;DHT22;55759;51.586;-1.758;2023-10-08T22:43:08;15.70;85.40
52245;DHT22;55759;51.586;-1.758;2023-10-08T22:52:51;15.70;85.60
52245;DHT22;55759;51.586;-1.758;2023-10-08T23:02:31;15.70;86.10
52245;DHT22;55759;51.586;-1.758;2023-10-08T23:05:44;15.70;86.50
52245;DHT22;55759;51.586;-1.758;2023-10-08T23:22:25;15.50;86.70
52245;DHT22;55759;51.586;-1.758;2023-10-08T23:29:00;15.40;87.30
52245;DHT22;55759;51.586;-1.758;2023-10-08T23:42:22;15.30;87.80
52245;DHT22;55759;51.586;-1.758;2023-10-08T23:45:52;15.30;87.90
52245;DHT22;55759;51.586;-1.758;2023-10-08T23:49:16;15.20;88.00
52245;DHT22;55759;51.586;-1.758;2023-10-08T23:54:58;15.10;88.40
52245;DHT22;55759;51.586;-1.758;2023-10-08T23:58:09;15.10;88.40
